Main page
METAR-TAF:

METAR-TAF

Airports :

Alderney Airport

Alderney,

latitude: 49-43N, longitude: 002-12W, elevation: 71 m

Current weather observation

The report was made 3 hours and 4 minutes ago, at 18:20 UTC
Wind 15 kt from the East/Northeast
Temperature 11°C
Pressure 1018 hPa
Visibility: 5000 m
Few clouds at a height of 400 ft
haze

METAR: EGJA 201820Z 06015KT 5000 HZ FEW004 11/// Q1018

Time: 22:24 (21:24 UTC)

Forecast

The report was made 7 hours and 24 minutes ago, at 14:00 UTC
Forecast valid from 20 at 15 UTC to 20 at 19 UTC
Wind 8 kt from the East/Northeast
Visibility: 9000 m
Few clouds at a height of 700 ft
Probability 30% :
Temporary
from 20 at 15 UTC to 20 at 19 UTC
Visibility: 5000 m
Broken clouds at a height of 500 ft
haze

TAF: EGJA 201400Z 2015/2019 06008KT 9000 FEW007 PROB30 TEMPO 2015/2019 5000 HZ BKN005

Weather observations and forecasts of more than 4000 airports (METAR and TAF reports).

The available stations are represented by yellow and red dots on the map.

Hover mouse over dot to see the name of the station.

Then click to see weather observations and forecasts.

To change the map : click on the green buttons with a black cross to zoom in, on the green button with a dash to zoom out, or on the green arrows for adjacent maps.


METAR-TAF: